createdAt,value
2018-08-03T00:00:06.073Z,90.28
2018-08-03T00:01:15.659Z,91.15
2018-08-03T00:02:25.779Z,90.86
2018-08-03T00:03:35.629Z,90.47
2018-08-03T00:04:45.748Z,90.57
2018-08-03T00:05:55.424Z,91.15
2018-08-03T00:07:04.727Z,90.37
2018-08-03T00:08:14.838Z,90.77
2018-08-03T00:09:24.686Z,91.35
2018-08-03T00:10:33.994Z,90.86
2018-08-03T00:11:43.300Z,90.86
2018-08-03T00:12:52.605Z,90.86
2018-08-03T00:14:02.181Z,91.05
2018-08-03T00:15:12.303Z,91.78
2018-08-03T00:16:22.415Z,91.53
2018-08-03T00:17:32.525Z,91.11
2018-08-03T00:18:42.369Z,90.95
2018-08-03T00:19:51.963Z,91.01
2018-08-03T00:21:02.092Z,92.07
2018-08-03T00:22:11.668Z,92.02
2018-08-03T00:23:21.239Z,91.11
2018-08-03T00:24:31.092Z,91.39
2018-08-03T00:25:41.210Z,91.68
2018-08-03T00:26:50.785Z,92.94
2018-08-03T00:28:00.630Z,92.26
2018-08-03T00:29:10.270Z,91.97
2018-08-03T00:30:19.856Z,91.49
2018-08-03T00:31:29.700Z,92.74
2018-08-03T00:32:39.003Z,91.39
2018-08-03T00:33:49.127Z,92.07
2018-08-03T00:34:58.437Z,91.78
2018-08-03T00:36:08.018Z,91.59
2018-08-03T00:37:17.871Z,92.16
2018-08-03T00:38:27.714Z,93.32
2018-08-03T00:39:36.534Z,92.46
2018-08-03T00:40:46.385Z,91.78
2018-08-03T00:41:56.230Z,93.23
2018-08-03T00:43:05.802Z,92.55
2018-08-03T00:44:15.657Z,92.22
2018-08-03T00:45:25.500Z,92.99
2018-08-03T00:46:35.077Z,92.46
2018-08-03T00:47:44.654Z,92.7
2018-08-03T00:48:54.494Z,92.8
2018-08-03T00:50:04.069Z,93.23
2018-08-03T00:51:14.187Z,92.89
2018-08-03T00:52:23.769Z,92.74
2018-08-03T00:53:33.623Z,93.47
2018-08-03T00:54:42.935Z,93.57
2018-08-03T00:55:51.968Z,94.34
2018-08-03T00:57:01.809Z,93.18
2018-08-03T00:58:11.113Z,93.76
2018-08-03T00:59:20.421Z,93.85
2018-08-03T01:00:30.267Z,93.85
2018-08-03T01:01:39.846Z,93.57
2018-08-03T01:02:49.961Z,94.43
2018-08-03T01:03:59.806Z,94.53
2018-08-03T01:05:09.379Z,94.24
2018-08-03T01:06:19.229Z,94.24
2018-08-03T01:07:28.265Z,93.95
2018-08-03T01:08:38.112Z,94.53
2018-08-03T01:09:47.684Z,94.15
2018-08-03T01:10:56.727Z,93.76
2018-08-03T01:12:06.850Z,93.85
2018-08-03T01:13:16.762Z,93.85
2018-08-03T01:14:26.335Z,95.21
2018-08-03T01:15:35.367Z,94.63
2018-08-03T01:16:44.674Z,94.82
2018-08-03T01:17:54.248Z,94.82
2018-08-03T01:19:03.830Z,93.57
2018-08-03T01:20:13.945Z,94.05
2018-08-03T01:21:23.792Z,94.43
2018-08-03T01:22:33.091Z,93.52
2018-08-03T01:23:43.209Z,94.1
2018-08-03T01:24:53.321Z,94.82
2018-08-03T01:26:03.161Z,95.06
2018-08-03T01:27:13.000Z,94.87
2018-08-03T01:28:22.583Z,94.58
2018-08-03T01:29:32.159Z,94.78
2018-08-03T01:30:41.464Z,94.58
2018-08-03T01:31:51.038Z,94.78
2018-08-03T01:33:00.883Z,94.87
2018-08-03T01:34:10.188Z,94.78
2018-08-03T01:35:20.303Z,94.96
2018-08-03T01:36:30.151Z,94.78
2018-08-03T01:37:39.733Z,94.78
2018-08-03T01:38:49.154Z,95.06
2018-08-03T01:39:58.723Z,94.78
2018-08-03T01:41:08.305Z,96.22
2018-08-03T01:42:18.161Z,95.74
2018-08-03T01:43:28.007Z,96.03
2018-08-03T01:44:37.315Z,95.06
2018-08-03T01:45:46.621Z,95.84
2018-08-03T01:46:56.462Z,95.59
2018-08-03T01:48:06.038Z,94.96
2018-08-03T01:49:15.884Z,95.54
2018-08-03T01:50:25.461Z,95.54
2018-08-03T01:51:35.304Z,96.7
2018-08-03T01:52:45.150Z,96.8
2018-08-03T01:53:55.266Z,95.84
2018-08-03T01:55:04.853Z,96.22
2018-08-03T01:56:14.965Z,96.03
2018-08-03T01:57:24.823Z,95.74
2018-08-03T01:58:34.937Z,95.89
2018-08-03T01:59:44.790Z,95.02
2018-08-03T02:00:54.370Z,95.59
2018-08-03T02:02:04.235Z,96.08
2018-08-03T02:03:14.135Z,95.11
2018-08-03T02:04:23.844Z,94.73
2018-08-03T02:05:33.147Z,95.31
2018-08-03T02:06:42.725Z,94.73
2018-08-03T02:07:52.307Z,94.92
2018-08-03T02:09:01.883Z,95.98
2018-08-03T02:10:10.929Z,94.92
2018-08-03T02:11:20.777Z,95.98
2018-08-03T02:12:30.621Z,95.11
2018-08-03T02:13:40.466Z,95.21
2018-08-03T02:14:50.317Z,94.82
2018-08-03T02:15:59.898Z,95.69
2018-08-03T02:17:09.203Z,94.73
2018-08-03T02:18:18.515Z,94.92
2018-08-03T02:19:28.094Z,95.69
2018-08-03T02:20:37.396Z,95.21
2018-08-03T02:21:46.703Z,94.54
2018-08-03T02:22:56.552Z,94.92
2018-08-03T02:24:06.398Z,95.02
2018-08-03T02:25:16.300Z,94.73
2018-08-03T02:26:25.913Z,95.11
2018-08-03T02:27:35.495Z,94.82
2018-08-03T02:28:45.340Z,95.79
2018-08-03T02:29:54.935Z,94.92
2018-08-03T02:31:04.234Z,95.31
2018-08-03T02:32:13.566Z,95.79
2018-08-03T02:33:23.698Z,95.11
2018-08-03T02:34:33.549Z,95.98
2018-08-03T02:35:42.853Z,96.17
2018-08-03T02:36:51.886Z,96.17
2018-08-03T02:38:01.461Z,94.82
2018-08-03T02:39:11.039Z,95.11
2018-08-03T02:40:20.884Z,95.02
2018-08-03T02:41:30.462Z,95.11
2018-08-03T02:42:40.333Z,95.36
2018-08-03T02:43:50.179Z,94.87
2018-08-03T02:45:00.302Z,95.11
2018-08-03T02:46:09.884Z,94.68
2018-08-03T02:47:19.741Z,95.79
2018-08-03T02:48:29.866Z,94.68
2018-08-03T02:49:39.720Z,95.07
2018-08-03T02:50:49.841Z,94.78
2018-08-03T02:51:59.686Z,95.36
2018-08-03T02:53:08.997Z,95.16
2018-08-03T02:54:19.109Z,94.59
2018-08-03T02:55:28.681Z,94.68
2018-08-03T02:56:37.986Z,94.29
2018-08-03T02:57:47.288Z,95.16
2018-08-03T02:58:57.129Z,94.68
2018-08-03T03:00:06.710Z,94.78
2018-08-03T03:01:16.282Z,94.87
2018-08-03T03:02:26.390Z,94.97
2018-08-03T03:03:36.253Z,95.07
2018-08-03T03:04:45.828Z,95.74
2018-08-03T03:05:55.936Z,94.87
2018-08-03T03:07:05.780Z,95.36
2018-08-03T03:08:15.630Z,95.07
2018-08-03T03:09:25.478Z,94.59
2018-08-03T03:10:35.327Z,94.68
2018-08-03T03:11:44.631Z,94.49
2018-08-03T03:12:54.743Z,94.39
2018-08-03T03:14:04.584Z,94.59
2018-08-03T03:15:14.695Z,94.59
2018-08-03T03:16:24.002Z,94.1
2018-08-03T03:17:33.582Z,94.1
2018-08-03T03:18:43.690Z,93.91
2018-08-03T03:19:53.268Z,94.29
2018-08-03T03:21:02.294Z,93.72
2018-08-03T03:22:12.139Z,93.72
2018-08-03T03:23:22.263Z,94.49
2018-08-03T03:24:32.108Z,94.49
2018-08-03T03:25:41.679Z,94.97
2018-08-03T03:26:51.793Z,94.49
2018-08-03T03:28:01.632Z,94.49
2018-08-03T03:29:11.803Z,94.59
2018-08-03T03:30:21.662Z,94.68
2018-08-03T03:31:31.533Z,94.87
2018-08-03T03:32:41.535Z,95.07
2018-08-03T03:33:51.393Z,94.78
2018-08-03T03:35:00.967Z,94.97
2018-08-03T03:36:10.810Z,94.44
2018-08-03T03:37:20.385Z,94.54
2018-08-03T03:38:29.690Z,94.25
2018-08-03T03:39:39.802Z,93.48
2018-08-03T03:40:49.370Z,94.64
2018-08-03T03:41:59.214Z,94.34
2018-08-03T03:43:08.788Z,94.34
2018-08-03T03:44:18.659Z,94.44
2018-08-03T03:45:28.607Z,94.34
2018-08-03T03:46:39.044Z,94.25
2018-08-03T03:47:48.626Z,94.87
2018-08-03T03:48:58.205Z,94.64
2018-08-03T03:50:07.515Z,94.25
2018-08-03T03:51:17.104Z,94.34
2018-08-03T03:52:26.415Z,94.82
2018-08-03T03:53:35.717Z,94.73
2018-08-03T03:54:44.755Z,94.44
2018-08-03T03:55:54.053Z,94.15
2018-08-03T03:57:03.892Z,94.34
2018-08-03T03:58:14.005Z,94.25
2018-08-03T03:59:23.188Z,94.25
2018-08-03T04:00:32.775Z,94.44
2018-08-03T04:01:42.358Z,94.54
2018-08-03T04:02:51.935Z,93.96
2018-08-03T04:04:01.293Z,94.34
2018-08-03T04:05:11.416Z,94.25
2018-08-03T04:06:20.460Z,93.57
2018-08-03T04:07:30.308Z,93.87
2018-08-03T04:08:40.429Z,93.57
2018-08-03T04:09:50.011Z,93.67
2018-08-03T04:11:00.224Z,93.96
2018-08-03T04:12:10.411Z,94.44
2018-08-03T04:13:20.464Z,94.06
2018-08-03T04:14:30.312Z,93.87
2018-08-03T04:15:40.221Z,93.87
2018-08-03T04:16:50.340Z,93.87
2018-08-03T04:17:59.918Z,93.77
2018-08-03T04:19:09.491Z,93.67
2018-08-03T04:20:19.614Z,93.57
2018-08-03T04:21:29.189Z,93.19
2018-08-03T04:22:39.029Z,93
2018-08-03T04:23:48.339Z,93.09
2018-08-03T04:24:58.190Z,93.04
2018-08-03T04:26:07.227Z,93.09
2018-08-03T04:27:17.339Z,93.24
2018-08-03T04:28:27.189Z,93.14
2018-08-03T04:29:36.783Z,93.33
2018-08-03T04:30:46.901Z,94.01
2018-08-03T04:31:56.743Z,93.43
2018-08-03T04:33:06.320Z,93.33
2018-08-03T04:34:15.906Z,93.62
2018-08-03T04:35:25.482Z,93.33
2018-08-03T04:36:35.322Z,93.04
2018-08-03T04:37:45.163Z,94.1
2018-08-03T04:38:54.488Z,94.1
2018-08-03T04:40:04.486Z,93.81
2018-08-03T04:41:14.330Z,93.24
2018-08-03T04:42:24.710Z,93.62
2018-08-03T04:43:35.011Z,93.14
2018-08-03T04:44:44.864Z,94.01
2018-08-03T04:45:54.441Z,93.72
2018-08-03T04:47:04.307Z,93.91
2018-08-03T04:48:14.420Z,93.62
2018-08-03T04:49:23.997Z,93.91
2018-08-03T04:50:33.856Z,93.81
2018-08-03T04:51:43.976Z,93.91
2018-08-03T04:52:53.548Z,93.81
2018-08-03T04:54:02.589Z,93.81
2018-08-03T04:55:11.625Z,93.81
2018-08-03T04:56:21.201Z,94.01
2018-08-03T04:57:31.052Z,93.91
2018-08-03T04:58:40.356Z,93.43
2018-08-03T04:59:50.210Z,93.04
2018-08-03T05:00:59.782Z,93.09
2018-08-03T05:02:09.914Z,93.38
2018-08-03T05:03:19.228Z,93.09
2018-08-03T05:04:28.813Z,93.76
2018-08-03T05:05:38.113Z,93.86
2018-08-03T05:06:47.412Z,92.9
2018-08-03T05:07:57.338Z,93.19
2018-08-03T05:09:06.912Z,92.9
2018-08-03T05:10:17.037Z,92.99
2018-08-03T05:11:26.881Z,93.38
2018-08-03T05:12:36.458Z,92.32
2018-08-03T05:13:46.305Z,92.9
2018-08-03T05:14:55.882Z,92.41
2018-08-03T05:16:05.992Z,92.9
2018-08-03T05:17:15.848Z,93.19
2018-08-03T05:18:25.423Z,92.71
2018-08-03T05:19:35.321Z,92.9
2018-08-03T05:20:44.626Z,92.99
2018-08-03T05:21:54.202Z,92.8
2018-08-03T05:23:04.321Z,92.61
2018-08-03T05:24:13.919Z,93.09
2018-08-03T05:25:24.395Z,92.8
2018-08-03T05:26:34.518Z,92.41
2018-08-03T05:27:44.636Z,92.13
2018-08-03T05:28:54.236Z,92.32
2018-08-03T05:30:04.091Z,92.32
2018-08-03T05:31:13.988Z,92.32
2018-08-03T05:32:23.298Z,92.13
2018-08-03T05:33:32.870Z,91.98
2018-08-03T05:34:42.447Z,91.74
2018-08-03T05:35:52.118Z,91.93
2018-08-03T05:37:02.543Z,91.88
2018-08-03T05:38:12.126Z,91.98
2018-08-03T05:39:21.970Z,91.88
2018-08-03T05:40:31.818Z,92.08
2018-08-03T05:41:41.145Z,92.08
2018-08-03T05:42:50.770Z,91.78
2018-08-03T05:44:00.353Z,91.69
2018-08-03T05:45:09.658Z,92.08
2018-08-03T05:46:19.501Z,91.2
2018-08-03T05:47:29.349Z,92.17
2018-08-03T05:48:39.198Z,91.88
2018-08-03T05:49:48.773Z,91.98
2018-08-03T05:50:58.629Z,91.88
2018-08-03T05:52:08.480Z,91.88
2018-08-03T05:53:18.113Z,91.6
2018-08-03T05:54:27.956Z,91.98
2018-08-03T05:55:37.809Z,91.78
2018-08-03T05:56:47.656Z,91.98
2018-08-03T05:57:56.999Z,91.93
2018-08-03T05:59:07.047Z,91.3
2018-08-03T06:00:16.889Z,92.08
2018-08-03T06:01:26.198Z,92.02
2018-08-03T06:02:36.312Z,91.98
2018-08-03T06:03:45.885Z,91.93
2018-08-03T06:04:55.748Z,91.93
2018-08-03T06:06:05.595Z,91.93
2018-08-03T06:07:14.905Z,92.12
2018-08-03T06:08:24.480Z,91.83
2018-08-03T06:09:34.138Z,91.44
2018-08-03T06:10:44.513Z,91.54
2018-08-03T06:11:53.821Z,91.64
2018-08-03T06:13:02.861Z,91.83
2018-08-03T06:14:12.887Z,91.64
2018-08-03T06:15:22.731Z,91.2
2018-08-03T06:16:32.574Z,91.3
2018-08-03T06:17:42.687Z,91.2
2018-08-03T06:18:52.804Z,91.2
2018-08-03T06:20:02.383Z,91.3
2018-08-03T06:21:11.419Z,91.3
2018-08-03T06:22:20.995Z,91.59
2018-08-03T06:23:30.881Z,90.81
2018-08-03T06:24:40.731Z,91.2
2018-08-03T06:25:50.325Z,91.11
2018-08-03T06:27:00.439Z,91.11
2018-08-03T06:28:09.482Z,90.81
2018-08-03T06:29:18.792Z,91.11
2018-08-03T06:30:28.686Z,91.3
2018-08-03T06:31:37.989Z,91.2
2018-08-03T06:32:47.291Z,90.91
2018-08-03T06:33:57.153Z,90.81
2018-08-03T06:35:07.036Z,91.15
2018-08-03T06:36:16.072Z,90.86
2018-08-03T06:37:25.929Z,90.57
2018-08-03T06:38:35.511Z,90.09
2018-08-03T06:39:44.824Z,90.57
2018-08-03T06:40:54.670Z,91.05
2018-08-03T06:42:04.249Z,90.86
2018-08-03T06:43:14.364Z,91.05
2018-08-03T06:44:23.952Z,91.05
2018-08-03T06:45:33.800Z,89.99
2018-08-03T06:46:43.377Z,90.37
2018-08-03T06:47:52.689Z,90.52
2018-08-03T06:49:02.534Z,90.13
2018-08-03T06:50:12.394Z,90.42
2018-08-03T06:51:22.238Z,90.33
2018-08-03T06:52:31.807Z,90.13
2018-08-03T06:53:41.953Z,90.13
2018-08-03T06:54:52.301Z,90.03
2018-08-03T06:56:02.155Z,89.75
2018-08-03T06:57:11.480Z,90.23
2018-08-03T06:58:21.330Z,90.42
2018-08-03T06:59:31.200Z,90.13
2018-08-03T07:00:40.790Z,90.23
2018-08-03T07:01:50.116Z,90.33
2018-08-03T07:02:59.569Z,89.55
2018-08-03T07:04:09.239Z,89.98
2018-08-03T07:05:18.819Z,90.37
2018-08-03T07:06:28.127Z,89.89
2018-08-03T07:07:38.246Z,90.17
2018-08-03T07:08:47.823Z,90.17
2018-08-03T07:09:57.669Z,89.98
2018-08-03T07:11:07.793Z,89.89
2018-08-03T07:12:17.915Z,89.79
2018-08-03T07:13:27.513Z,89.69
2018-08-03T07:14:37.282Z,89.74
2018-08-03T07:15:47.452Z,89.25
2018-08-03T07:16:57.026Z,89.35
2018-08-03T07:18:06.604Z,89.25
2018-08-03T07:19:16.451Z,89.15
2018-08-03T07:20:26.888Z,89.15
2018-08-03T07:21:36.026Z,89.35
2018-08-03T07:22:45.330Z,89.29
2018-08-03T07:23:55.448Z,89.39
2018-08-03T07:25:05.036Z,89.35
2018-08-03T07:26:14.620Z,89.39
2018-08-03T07:27:24.197Z,89.2
2018-08-03T07:28:33.777Z,89.39
2018-08-03T07:29:43.088Z,89.69
2018-08-03T07:30:52.670Z,88.53
2018-08-03T07:32:02.517Z,88.91
2018-08-03T07:33:12.640Z,88.53
2018-08-03T07:34:22.758Z,88.37
2018-08-03T07:35:32.891Z,88.37
2018-08-03T07:36:42.463Z,88.37
2018-08-03T07:37:52.333Z,88.37
2018-08-03T07:39:02.176Z,88.18
2018-08-03T07:40:11.575Z,88.76
2018-08-03T07:41:21.420Z,88.76
2018-08-03T07:42:31.001Z,89.63
2018-08-03T07:43:40.035Z,88.85
2018-08-03T07:44:50.161Z,88.76
2018-08-03T07:46:00.151Z,88.57
2018-08-03T07:47:10.006Z,87.99
2018-08-03T07:48:19.575Z,88.76
2018-08-03T07:49:29.689Z,88.28
2018-08-03T07:50:38.996Z,88.32
2018-08-03T07:51:48.572Z,88.13
2018-08-03T07:52:57.894Z,88.03
2018-08-03T07:54:07.739Z,88.32
2018-08-03T07:55:17.315Z,88.23
2018-08-03T07:56:26.624Z,88.13
2018-08-03T07:57:36.196Z,88.13
2018-08-03T07:58:45.774Z,87.45
2018-08-03T07:59:55.351Z,88.42
2018-08-03T08:01:04.929Z,88.17
2018-08-03T08:02:14.786Z,88.17
2018-08-03T08:03:24.369Z,87.49
2018-08-03T08:04:34.222Z,87.88
2018-08-03T08:05:44.071Z,87.3
2018-08-03T08:06:53.668Z,87.59
2018-08-03T08:08:03.378Z,87.2
2018-08-03T08:09:13.223Z,87.78
2018-08-03T08:10:23.345Z,87.59
2018-08-03T08:11:32.928Z,87.59
2018-08-03T08:12:42.233Z,87.49
2018-08-03T08:13:52.391Z,88.17
2018-08-03T08:15:02.241Z,88.17
2018-08-03T08:16:11.988Z,88.37
2018-08-03T08:17:22.102Z,88.27
2018-08-03T08:18:31.680Z,88.37
2018-08-03T08:19:41.528Z,87.98
2018-08-03T08:20:51.649Z,87.49
2018-08-03T08:22:01.233Z,87.98
2018-08-03T08:23:10.545Z,87.73
2018-08-03T08:24:20.124Z,87.44
2018-08-03T08:25:29.432Z,87.54
2018-08-03T08:26:39.560Z,87.29
2018-08-03T08:27:49.679Z,86.71
2018-08-03T08:28:59.531Z,86.02
2018-08-03T08:30:08.844Z,86.02
2018-08-03T08:31:18.699Z,86.9
2018-08-03T08:32:28.620Z,87.19
2018-08-03T08:33:38.743Z,86.99
2018-08-03T08:34:48.865Z,87.29
2018-08-03T08:35:58.443Z,87.68
2018-08-03T08:37:08.291Z,87.29
2018-08-03T08:38:18.144Z,86.16
2018-08-03T08:39:27.451Z,86.94
2018-08-03T08:40:37.026Z,86.75
2018-08-03T08:41:46.336Z,86.65
2018-08-03T08:42:56.449Z,86.36
2018-08-03T08:44:06.030Z,86.26
2018-08-03T08:45:14.798Z,85.53
2018-08-03T08:46:24.373Z,85.63
2018-08-03T08:47:33.965Z,85.33
2018-08-03T08:48:43.542Z,85.63
2018-08-03T08:49:53.117Z,85.63
2018-08-03T08:51:02.155Z,85.63
2018-08-03T08:52:12.006Z,86.6
2018-08-03T08:53:22.333Z,85.33
2018-08-03T08:54:32.308Z,85.24
2018-08-03T08:55:42.181Z,85.82
2018-08-03T08:56:51.781Z,85.82
2018-08-03T08:58:01.362Z,85.43
2018-08-03T08:59:10.670Z,84.99
2018-08-03T09:00:20.245Z,84.89
2018-08-03T09:01:29.826Z,84.93
2018-08-03T09:02:39.132Z,84.93
2018-08-03T09:03:48.717Z,84.93
2018-08-03T09:04:58.840Z,85.03
2018-08-03T09:06:08.150Z,84.01
2018-08-03T09:07:18.007Z,84.06
2018-08-03T09:08:27.602Z,85.52
2018-08-03T09:09:37.180Z,85.67
2018-08-03T09:10:46.759Z,86.35
2018-08-03T09:11:56.074Z,85.42
2018-08-03T09:13:05.702Z,85.81
2018-08-03T09:14:16.041Z,85.71
2018-08-03T09:15:25.624Z,84.83
2018-08-03T09:16:35.470Z,84.83
2018-08-03T09:17:45.605Z,85.32
2018-08-03T09:18:54.928Z,84.97
2018-08-03T09:20:04.241Z,84.39
2018-08-03T09:21:13.553Z,83.91
2018-08-03T09:22:23.396Z,84.78
2018-08-03T09:23:33.252Z,85.03
2018-08-03T09:24:42.875Z,84.58
2018-08-03T09:25:53.206Z,84.35
2018-08-03T09:27:03.052Z,84.3
2018-08-03T09:28:13.251Z,84.25
2018-08-03T09:29:22.847Z,84.06
2018-08-03T09:30:32.764Z,83.71
2018-08-03T09:31:42.346Z,82.64
2018-08-03T09:32:51.928Z,83.46
2018-08-03T09:34:01.504Z,83.46
2018-08-03T09:35:10.809Z,82.49
2018-08-03T09:36:20.658Z,80.15
2018-08-03T09:37:30.607Z,83.11
2018-08-03T09:38:40.188Z,82.74
2018-08-03T09:39:49.506Z,82.54
2018-08-03T09:40:59.095Z,82.87
2018-08-03T09:42:08.671Z,82.97
2018-08-03T09:43:18.255Z,81.16
2018-08-03T09:44:27.849Z,82.04
2018-08-03T09:45:37.700Z,82.04
2018-08-03T09:46:47.813Z,81.3
2018-08-03T09:47:57.174Z,81.01
2018-08-03T09:49:07.085Z,80.72
2018-08-03T09:50:17.099Z,81.59
2018-08-03T09:51:26.142Z,80.77
2018-08-03T09:52:35.993Z,80.82
2018-08-03T09:53:45.849Z,80.33
2018-08-03T09:54:55.700Z,80.36
2018-08-03T09:56:05.276Z,79.39
2018-08-03T09:57:15.175Z,80.17
2018-08-03T09:58:24.761Z,79.49
2018-08-03T09:59:34.613Z,78.45
2018-08-03T10:00:44.738Z,77.68
2018-08-03T10:01:54.438Z,77.87
2018-08-03T10:03:04.291Z,78.16
2018-08-03T10:04:13.870Z,78.06
2018-08-03T10:05:23.459Z,79.14
2018-08-03T10:06:33.309Z,79.04
2018-08-03T10:07:42.627Z,79.24
2018-08-03T10:08:51.941Z,77.87
2018-08-03T10:10:01.791Z,77.97
2018-08-03T10:11:11.641Z,79.04
2018-08-03T10:12:21.494Z,79.04
2018-08-03T10:13:31.128Z,78.65
2018-08-03T10:14:40.982Z,78.79
2018-08-03T10:15:51.099Z,79.43
2018-08-03T10:17:01.010Z,77.48
2018-08-03T10:18:10.595Z,77.78
2018-08-03T10:19:20.174Z,79.63
2018-08-03T10:20:29.755Z,77.19
2018-08-03T10:21:39.340Z,77.68
2018-08-03T10:22:49.195Z,76.54
2018-08-03T10:23:59.321Z,74.98
2018-08-03T10:25:08.902Z,73.72
2018-08-03T10:26:18.479Z,72.78
2018-08-03T10:27:27.791Z,72.39
2018-08-03T10:28:37.374Z,72.09
2018-08-03T10:29:47.463Z,71.61
2018-08-03T10:30:57.332Z,72.13
2018-08-03T10:32:06.919Z,69.59
2018-08-03T10:33:16.230Z,69.4
2018-08-03T10:34:26.076Z,69.49
2018-08-03T10:35:35.934Z,72.03
2018-08-03T10:36:46.054Z,70.63
2018-08-03T10:37:55.903Z,71.51
2018-08-03T10:39:05.213Z,71.8
2018-08-03T10:40:14.529Z,72.13
2018-08-03T10:41:24.653Z,71.35
2018-08-03T10:42:34.242Z,71.45
2018-08-03T10:43:44.447Z,72.88
2018-08-03T10:44:53.489Z,72.68
2018-08-03T10:46:03.074Z,72.49
2018-08-03T10:47:12.724Z,72.68
2018-08-03T10:48:22.709Z,71.7
2018-08-03T10:49:31.755Z,73.17
2018-08-03T10:50:41.875Z,73.52
2018-08-03T10:51:51.725Z,71.9
2018-08-03T10:53:01.851Z,72.97
2018-08-03T10:54:11.448Z,71.02
2018-08-03T10:55:21.024Z,72.09
2018-08-03T10:56:30.604Z,72.91
2018-08-03T10:57:40.450Z,71.31
2018-08-03T10:58:49.770Z,71.25
2018-08-03T10:59:59.356Z,73.21
2018-08-03T11:01:09.212Z,69.1
2018-08-03T11:02:19.196Z,68.36
2018-08-03T11:03:29.325Z,68.65
2018-08-03T11:04:38.902Z,68.65
2018-08-03T11:05:48.486Z,67.38
2018-08-03T11:06:58.344Z,67.97
2018-08-03T11:08:07.927Z,67.22
2018-08-03T11:09:17.235Z,67.02
2018-08-03T11:10:26.546Z,65.85
2018-08-03T11:11:36.391Z,66.47
2018-08-03T11:12:46.237Z,66.17
2018-08-03T11:13:56.210Z,64.61
2018-08-03T11:15:06.693Z,65.78
2018-08-03T11:16:16.811Z,65.78
2018-08-03T11:17:26.667Z,65
2018-08-03T11:18:36.808Z,64.42
2018-08-03T11:19:46.385Z,65.3
2018-08-03T11:20:56.238Z,65.69
2018-08-03T11:22:05.819Z,65.03
2018-08-03T11:23:15.129Z,64.25
2018-08-03T11:24:24.819Z,63.08
2018-08-03T11:25:34.686Z,63.57
2018-08-03T11:26:44.321Z,62.42
2018-08-03T11:27:53.898Z,63.11
2018-08-03T11:29:03.754Z,61.74
2018-08-03T11:30:13.065Z,62.32
2018-08-03T11:31:22.924Z,60.79
2018-08-03T11:32:33.051Z,59.81
2018-08-03T11:33:43.173Z,60
2018-08-03T11:34:53.025Z,58.93
2018-08-03T11:36:02.872Z,58.54
2018-08-03T11:37:12.450Z,59.42
2018-08-03T11:38:22.033Z,58.76
2018-08-03T11:39:31.618Z,58.07
2018-08-03T11:40:41.231Z,59.64
2018-08-03T11:41:51.610Z,58.27
2018-08-03T11:43:01.470Z,58.07
2018-08-03T11:44:11.328Z,60.92
2018-08-03T11:45:21.452Z,59.91
2018-08-03T11:46:31.034Z,58.96
2018-08-03T11:47:40.614Z,59.35
2018-08-03T11:48:50.751Z,59.25
2018-08-03T11:49:59.796Z,60
2018-08-03T11:51:09.915Z,59.29
2018-08-03T11:52:19.500Z,59.69
2018-08-03T11:53:29.085Z,61.54
2018-08-03T11:54:38.943Z,61.54
2018-08-03T11:55:49.110Z,61.9
2018-08-03T11:56:58.424Z,59.56
2018-08-03T11:58:08.546Z,60.37
2018-08-03T11:59:18.679Z,59.98
2018-08-03T12:00:27.990Z,60.86
2018-08-03T12:01:37.571Z,59.39
2018-08-03T12:02:47.457Z,58.9
2018-08-03T12:03:57.306Z,58.34
2018-08-03T12:05:06.890Z,58.37
2018-08-03T12:06:17.016Z,59.94
2018-08-03T12:07:26.399Z,59.87
2018-08-03T12:08:35.710Z,59.06
2018-08-03T12:09:45.851Z,58.86
2018-08-03T12:10:55.446Z,56.9
2018-08-03T12:12:05.049Z,55.95
2018-08-03T12:13:14.903Z,57.64
2018-08-03T12:14:24.213Z,59.28
2018-08-03T12:15:34.066Z,57.71
2018-08-03T12:16:43.919Z,58.43
2018-08-03T12:17:53.868Z,57.25
2018-08-03T12:19:04.369Z,57.93
2018-08-03T12:20:13.964Z,57.35
2018-08-03T12:21:23.832Z,56.27
2018-08-03T12:22:33.685Z,55.19
2018-08-03T12:23:43.651Z,55.22
2018-08-03T12:24:53.759Z,56.59
2018-08-03T12:26:03.347Z,56.2
2018-08-03T12:27:12.980Z,55.93
2018-08-03T12:28:22.840Z,55.35
2018-08-03T12:29:32.699Z,54.17
2018-08-03T12:30:41.748Z,53.38
2018-08-03T12:31:51.612Z,53.41
2018-08-03T12:33:01.467Z,54.58
2018-08-03T12:34:10.782Z,54.1
2018-08-03T12:35:20.121Z,56.16
2018-08-03T12:36:29.711Z,54.68
2018-08-03T12:37:39.308Z,53.02
2018-08-03T12:38:48.900Z,53.5
2018-08-03T12:39:57.681Z,54.78
2018-08-03T12:41:07.544Z,55.15
2018-08-03T12:42:17.132Z,54.75
2018-08-03T12:43:26.822Z,54.93
2018-08-03T12:44:36.736Z,54.66
2018-08-03T12:45:46.325Z,53.97
2018-08-03T12:46:56.318Z,53.11
2018-08-03T12:48:06.543Z,51.67
2018-08-03T12:49:16.133Z,53.53
2018-08-03T12:50:26.003Z,53.63
2018-08-03T12:51:36.433Z,53.33
2018-08-03T12:52:46.572Z,54.22
2018-08-03T12:53:56.551Z,54.71
2018-08-03T12:55:06.409Z,53.21
2018-08-03T12:56:15.724Z,54.12
2018-08-03T12:57:25.582Z,53.83
2018-08-03T12:58:35.173Z,53.73
2018-08-03T12:59:44.815Z,54.12
2018-08-03T13:00:55.134Z,53.44
2018-08-03T13:02:04.455Z,52.45
2018-08-03T13:03:14.043Z,54.35
2018-08-03T13:04:23.794Z,53.83
2018-08-03T13:05:33.383Z,53.73
2018-08-03T13:06:43.533Z,52.58
2018-08-03T13:07:53.910Z,52.28
2018-08-03T13:09:05.316Z,54.14
2018-08-03T13:10:15.438Z,52.75
2018-08-03T13:11:25.582Z,53.14
2018-08-03T13:12:35.434Z,53.44
2018-08-03T13:13:45.566Z,53.46
2018-08-03T13:14:55.378Z,53.14
2018-08-03T13:16:05.157Z,52.67
2018-08-03T13:17:14.482Z,52.01
2018-08-03T13:18:23.800Z,54.17
2018-08-03T13:19:33.929Z,53.58
2018-08-03T13:20:43.789Z,54.3
2018-08-03T13:21:53.115Z,55.45
2018-08-03T13:23:02.717Z,56.14
2018-08-03T13:24:12.043Z,55.85
2018-08-03T13:25:21.902Z,55.85
2018-08-03T13:26:31.233Z,55.85
2018-08-03T13:27:41.369Z,56.46
2018-08-03T13:28:50.958Z,55.85
2018-08-03T13:30:00.545Z,55.87
2018-08-03T13:31:10.412Z,56.16
2018-08-03T13:32:20.051Z,55.77
2018-08-03T13:33:29.650Z,55.77
2018-08-03T13:34:38.972Z,55.08
2018-08-03T13:35:48.565Z,55.28
2018-08-03T13:36:58.430Z,55.6
2018-08-03T13:38:08.296Z,55.28
2018-08-03T13:39:17.620Z,55.38
2018-08-03T13:40:27.210Z,55.38
2018-08-03T13:41:37.070Z,55.97
2018-08-03T13:42:47.209Z,55.68
2018-08-03T13:43:57.070Z,55.6
2018-08-03T13:45:07.213Z,55.11
2018-08-03T13:46:17.398Z,55.08
2018-08-03T13:47:26.984Z,55.28
2018-08-03T13:48:36.849Z,55.18
2018-08-03T13:49:46.702Z,55.38
2018-08-03T13:50:56.026Z,54.89
2018-08-03T13:52:05.627Z,55.21
2018-08-03T13:53:15.216Z,54.16
2018-08-03T13:54:24.577Z,54.18
2018-08-03T13:55:34.167Z,54.05
2018-08-03T13:56:43.755Z,53.86
2018-08-03T13:57:53.248Z,53.96
2018-08-03T13:59:02.997Z,54.05
2018-08-03T14:00:12.868Z,53.96
2018-08-03T14:01:22.727Z,54.05
2018-08-03T14:02:32.588Z,53.66
2018-08-03T14:03:42.730Z,54.18
2018-08-03T14:04:52.370Z,54.03
2018-08-03T14:06:02.234Z,53.36
2018-08-03T14:07:11.842Z,54.16
2018-08-03T14:08:21.711Z,53.39
2018-08-03T14:09:31.569Z,52.61
2018-08-03T14:10:41.433Z,53.13
2018-08-03T14:11:51.028Z,53
2018-08-03T14:13:00.350Z,52.63
2018-08-03T14:14:10.214Z,52.43
2018-08-03T14:15:20.076Z,52.63
2018-08-03T14:16:29.396Z,51.94
2018-08-03T14:17:39.551Z,52.23
2018-08-03T14:18:48.602Z,52.56
2018-08-03T14:19:58.738Z,51.74
2018-08-03T14:21:08.880Z,51.97
2018-08-03T14:22:18.895Z,51.89
2018-08-03T14:23:28.215Z,51.69
2018-08-03T14:24:38.081Z,51.87
2018-08-03T14:25:47.672Z,51.97
2018-08-03T14:26:57.531Z,51.67
2018-08-03T14:28:07.385Z,51.2
2018-08-03T14:29:17.247Z,50.81
2018-08-03T14:30:26.838Z,50.51
2018-08-03T14:31:36.765Z,50.81
2018-08-03T14:32:47.455Z,49.94
2018-08-03T14:33:57.330Z,50.16
2018-08-03T14:35:07.196Z,49.84
2018-08-03T14:36:16.795Z,50.34
2018-08-03T14:37:26.386Z,49.82
2018-08-03T14:38:36.253Z,49.62
2018-08-03T14:39:46.120Z,50.63
2018-08-03T14:40:55.712Z,50.02
2018-08-03T14:42:05.306Z,49.55
2018-08-03T14:43:14.365Z,49.65
2018-08-03T14:44:24.226Z,49.74
2018-08-03T14:45:34.101Z,49.94
2018-08-03T14:46:44.239Z,50.36
2018-08-03T14:47:54.111Z,49.37
2018-08-03T14:49:03.726Z,49.2
2018-08-03T14:50:14.003Z,49.96
2018-08-03T14:51:23.826Z,50.16
2018-08-03T14:52:33.150Z,49.87
2018-08-03T14:53:42.748Z,49.27
2018-08-03T14:54:52.072Z,49.27
2018-08-03T14:56:01.395Z,48.9
2018-08-03T14:57:10.986Z,49.18
2018-08-03T14:58:20.846Z,49.6
2018-08-03T14:59:30.433Z,49.27